• Join FlightAware (Why Join?)
  • Login
  • US Flag 
07:33AM EDT


 

Airport Tracker/Info


-or-


 

Live Flight TrackerFlight Track Log ✈ CTL17 ✈ 02-May-2013 ✈ KPTK - KMBS

Flight Track Log - Related Links

Times and Time Zones

All times are in EDT time to prevent confusion due to time zone crossing. See the CTL17 flight status page for this flight to view local times or setup timezone preferences in your user account.

Time Position Orientation Groundspeed Altitude Reporting Facility
EDT Latitude Longitude Course Direction KTS MPH feet Rate Location/Type
03:57PM 42.6631 -83.4125 71° East 121 139 1,300  Level Cleveland Center
03:57PM 42.6700 -83.3844 71° East 121 139 1,900 960 Climbing Cleveland Center
03:59PM 42.7245 -83.3978 350° North  Level FlightAware Approximate
04:06PM 43.0157 -83.4939 321° Northwest  Level FlightAware Approximate
04:07PM 43.0516 -83.5336 321° Northwest  Level FlightAware Approximate
04:08PM 43.0875 -83.5733 321° Northwest  Level FlightAware Approximate
04:09PM 43.1234 -83.6131 321° Northwest  Level FlightAware Approximate
04:10PM 43.1592 -83.6528 321° Northwest  Level FlightAware Approximate
04:11PM 43.1951 -83.6927 321° Northwest  Level FlightAware Approximate
04:12PM 43.2304 -83.7334 318° Northwest  Level FlightAware Approximate
04:13PM 43.2649 -83.7755 318° Northwest  Level FlightAware Approximate
04:14PM 43.2994 -83.8176 318° Northwest  Level FlightAware Approximate
04:15PM 43.3339 -83.8598 318° Northwest  Level FlightAware Approximate
04:16PM 43.3685 -83.9018 324° Northwest  Level FlightAware Approximate
04:17PM 43.4058 -83.9391 324° Northwest  Level FlightAware Approximate
04:18PM 43.4432 -83.9764 324° Northwest  Level FlightAware Approximate
04:19PM 43.4805 -84.0138 324° Northwest  Level FlightAware Approximate
04:20PM 43.5125 -84.0584 305° West  Level FlightAware Approximate
04:21PM 43.5167 -84.0667 305° West  Level FlightAware Approximate
04:22PM 43.5329 -84.0796 305° West  Level Estimated
04:23PM 43.5329 -84.0796 305° West  Level Estimated
04:24PM 43.5329 -84.0796 305° West  Level Estimated
04:25PM 43.5329 -84.0796 305° West  Level Estimated
04:26PM 43.5329 -84.0796 305° West  Level Estimated
04:27PM 43.5329 -84.0796 305° West  Level Estimated